createdAt,value
2023-01-06T00:01:30.502Z,11.98
2023-01-06T00:03:59.475Z,11.15
2023-01-06T00:06:29.319Z,13.18
2023-01-06T00:09:02.908Z,11.70
2023-01-06T00:11:31.978Z,12.65
2023-01-06T00:14:00.162Z,12.93
2023-01-06T00:16:28.034Z,10.70
2023-01-06T00:18:57.733Z,11.15
2023-01-06T00:21:25.778Z,10.63
2023-01-06T00:23:55.274Z,10.73
2023-01-06T00:26:23.572Z,10.38
2023-01-06T00:28:56.111Z,13.15
2023-01-06T00:31:23.952Z,9.70
2023-01-06T00:33:52.182Z,10.07
2023-01-06T00:36:21.844Z,9.85
2023-01-06T00:38:51.375Z,13.30
2023-01-06T00:41:38.617Z,11.48
2023-01-06T00:44:07.218Z,13.15
2023-01-06T00:46:35.090Z,13.90
2023-01-06T00:49:06.022Z,11.50
2023-01-06T00:51:36.697Z,10.57
2023-01-06T00:54:09.884Z,9.98
2023-01-06T00:56:39.673Z,9.93
2023-01-06T00:59:10.099Z,10.70
2023-01-06T01:01:38.510Z,11.82
2023-01-06T01:04:07.726Z,10.90
2023-01-06T01:06:36.747Z,11.38
2023-01-06T01:09:06.683Z,12.45
2023-01-06T01:11:53.320Z,12.70
2023-01-06T01:14:21.563Z,12.90
2023-01-06T01:16:49.344Z,11.80
2023-01-06T01:19:18.124Z,10.35
2023-01-06T01:21:46.545Z,10.27
2023-01-06T01:24:15.963Z,9.27
2023-01-06T01:26:44.340Z,8.70
2023-01-06T01:29:14.168Z,7.97
2023-01-06T01:31:43.095Z,10.30
2023-01-06T01:34:12.858Z,7.93
2023-01-06T01:36:46.282Z,8.85
2023-01-06T01:39:16.236Z,12.02
2023-01-06T01:41:45.128Z,10.05
2023-01-06T01:44:50.644Z,9.23
2023-01-06T01:47:35.964Z,8.77
2023-01-06T01:50:32.990Z,9.88
2023-01-06T01:53:12.980Z,10.82
2023-01-06T01:55:41.342Z,10.38
2023-01-06T01:58:23.972Z,9.48
2023-01-06T02:00:52.554Z,7.40
2023-01-06T02:03:22.872Z,8.80
2023-01-06T02:05:54.483Z,6.65
2023-01-06T02:08:36.623Z,8.05
2023-01-06T02:11:05.942Z,7.18
2023-01-06T02:13:35.935Z,7.38
2023-01-06T02:16:20.052Z,5.68
2023-01-06T02:18:59.859Z,5.80
2023-01-06T02:21:30.725Z,4.70
2023-01-06T02:24:37.959Z,4.20
2023-01-06T02:27:20.584Z,4.18
2023-01-06T02:30:13.121Z,6.70
2023-01-06T02:32:49.324Z,7.03
2023-01-06T02:35:56.262Z,6.40
2023-01-06T02:38:36.626Z,8.00
2023-01-06T02:41:55.543Z,9.75
2023-01-06T02:44:44.295Z,6.47
2023-01-06T02:48:11.089Z,7.32
2023-01-06T02:50:56.107Z,5.93
2023-01-06T02:53:43.503Z,4.25
2023-01-06T02:56:11.877Z,5.40
2023-01-06T02:58:42.685Z,4.20
2023-01-06T03:01:10.968Z,4.47
2023-01-06T03:03:43.639Z,4.68
2023-01-06T03:06:19.893Z,3.67
2023-01-06T03:08:50.203Z,3.67
2023-01-06T03:11:20.070Z,5.70
2023-01-06T03:14:10.558Z,4.32
2023-01-06T03:16:39.136Z,3.72
2023-01-06T03:19:07.324Z,4.30
2023-01-06T03:21:40.450Z,4.65
2023-01-06T03:24:11.941Z,4.93
2023-01-06T03:26:42.083Z,3.88
2023-01-06T03:29:14.318Z,4.18
2023-01-06T03:32:28.816Z,3.95
2023-01-06T03:35:20.153Z,4.88
2023-01-06T03:38:22.691Z,4.05
2023-01-06T03:41:00.313Z,4.53
2023-01-06T03:43:42.711Z,4.22
2023-01-06T03:46:25.504Z,5.55
2023-01-06T03:49:02.545Z,5.35
2023-01-06T03:51:42.943Z,6.70
2023-01-06T03:54:14.482Z,7.07
2023-01-06T03:56:57.680Z,7.68
2023-01-06T03:59:30.660Z,7.65
2023-01-06T04:01:59.846Z,6.38
2023-01-06T04:04:27.769Z,5.07
2023-01-06T04:06:55.846Z,4.97
2023-01-06T04:09:23.620Z,5.32
2023-01-06T04:12:09.798Z,5.35
2023-01-06T04:14:39.985Z,4.97
2023-01-06T04:17:07.718Z,4.63
2023-01-06T04:19:35.987Z,4.82
2023-01-06T04:22:04.278Z,5.47
2023-01-06T04:24:33.216Z,4.70
2023-01-06T04:27:01.006Z,4.70
2023-01-06T04:29:29.811Z,6.32
2023-01-06T04:31:59.020Z,4.57
2023-01-06T04:34:26.847Z,4.25
2023-01-06T04:36:57.078Z,5.00
2023-01-06T04:39:25.041Z,4.25
2023-01-06T04:41:52.993Z,5.07
2023-01-06T04:44:21.283Z,4.30
2023-01-06T04:46:48.994Z,4.85
2023-01-06T04:49:17.229Z,4.78
2023-01-06T04:51:45.034Z,6.45
2023-01-06T04:54:12.934Z,4.10
2023-01-06T04:56:40.669Z,4.55
2023-01-06T04:59:08.488Z,4.65
2023-01-06T05:01:36.880Z,5.25
2023-01-06T05:04:07.383Z,6.18
2023-01-06T05:06:35.588Z,5.43
2023-01-06T05:09:03.448Z,6.70
2023-01-06T05:11:31.399Z,3.35
2023-01-06T05:13:59.427Z,3.83
2023-01-06T05:16:34.852Z,3.15
2023-01-06T05:19:02.738Z,3.53
2023-01-06T05:21:32.913Z,4.93
2023-01-06T05:24:00.774Z,4.45
2023-01-06T05:26:28.822Z,3.95
2023-01-06T05:28:56.850Z,5.40
2023-01-06T05:31:25.454Z,4.00
2023-01-06T05:33:53.269Z,4.80
2023-01-06T05:36:20.980Z,4.50
2023-01-06T05:38:54.334Z,4.13
2023-01-06T05:41:22.259Z,5.05
2023-01-06T05:43:49.942Z,4.03
2023-01-06T05:46:17.926Z,6.43
2023-01-06T05:48:45.605Z,6.25
2023-01-06T05:51:18.016Z,6.97
2023-01-06T05:53:48.648Z,7.13
2023-01-06T05:56:19.404Z,8.82
2023-01-06T05:58:49.650Z,6.65
2023-01-06T06:01:26.508Z,7.85
2023-01-06T06:03:55.308Z,6.80
2023-01-06T06:06:25.816Z,8.68
2023-01-06T06:08:53.791Z,9.35
2023-01-06T06:11:22.632Z,8.38
2023-01-06T06:13:55.454Z,7.65
2023-01-06T06:16:28.191Z,11.82
2023-01-06T06:18:58.398Z,7.30
2023-01-06T06:21:31.102Z,6.20
2023-01-06T06:24:00.004Z,5.57
2023-01-06T06:26:28.653Z,6.05
2023-01-06T06:28:56.508Z,5.93
2023-01-06T06:31:27.408Z,6.72
2023-01-06T06:33:59.422Z,10.20
2023-01-06T06:36:29.290Z,7.57
2023-01-06T06:38:57.570Z,9.40
2023-01-06T06:41:26.092Z,7.32
2023-01-06T06:43:53.841Z,6.25
2023-01-06T06:46:22.393Z,6.57
2023-01-06T06:48:51.071Z,4.13
2023-01-06T06:51:21.081Z,5.25
2023-01-06T06:53:50.283Z,3.88
2023-01-06T06:56:20.417Z,3.65
2023-01-06T06:58:48.459Z,5.07
2023-01-06T07:01:19.006Z,4.05
2023-01-06T07:03:47.716Z,5.95
2023-01-06T07:06:19.679Z,5.30
2023-01-06T07:08:48.394Z,5.88
2023-01-06T07:11:16.401Z,5.28
2023-01-06T07:13:44.239Z,5.13
2023-01-06T07:16:12.354Z,5.70
2023-01-06T07:18:40.914Z,7.22
2023-01-06T07:21:08.811Z,5.70
2023-01-06T07:23:36.490Z,6.35
2023-01-06T07:26:04.366Z,6.25
2023-01-06T07:28:33.097Z,8.30
2023-01-06T07:31:01.920Z,6.40
2023-01-06T07:33:29.854Z,8.05
2023-01-06T07:35:58.665Z,6.32
2023-01-06T07:38:26.618Z,7.88
2023-01-06T07:41:00.302Z,7.90
2023-01-06T07:43:28.409Z,6.03
2023-01-06T07:45:56.222Z,5.82
2023-01-06T07:48:23.951Z,4.75
2023-01-06T07:50:51.715Z,4.53
2023-01-06T07:53:19.588Z,4.18
2023-01-06T07:55:52.438Z,4.68
2023-01-06T07:58:20.669Z,4.07
2023-01-06T08:00:48.456Z,4.50
2023-01-06T08:03:16.421Z,4.78
2023-01-06T08:05:44.737Z,14.65
2023-01-06T08:08:14.415Z,7.97
2023-01-06T08:10:43.317Z,7.35
2023-01-06T08:13:11.605Z,4.85
2023-01-06T08:15:39.889Z,6.32
2023-01-06T08:18:07.958Z,5.68
2023-01-06T08:20:35.949Z,5.05
2023-01-06T08:23:03.780Z,6.63
2023-01-06T08:25:31.556Z,5.35
2023-01-06T08:28:02.711Z,5.65
2023-01-06T08:30:30.967Z,5.65
2023-01-06T08:33:01.739Z,7.78
2023-01-06T08:35:29.546Z,5.32
2023-01-06T08:37:57.383Z,7.53
2023-01-06T08:40:25.437Z,8.70
2023-01-06T08:42:53.239Z,7.07
2023-01-06T08:45:21.128Z,7.78
2023-01-06T08:47:48.825Z,7.75
2023-01-06T08:50:16.651Z,6.32
2023-01-06T08:52:44.394Z,5.57
2023-01-06T08:55:12.186Z,6.72
2023-01-06T08:57:39.951Z,6.07
2023-01-06T09:00:09.862Z,6.20
2023-01-06T09:02:37.608Z,6.30
2023-01-06T09:05:06.132Z,8.07
2023-01-06T09:07:34.018Z,5.85
2023-01-06T09:10:02.165Z,5.53
2023-01-06T09:12:30.025Z,8.40
2023-01-06T09:14:57.866Z,6.00
2023-01-06T09:17:25.743Z,7.45
2023-01-06T09:19:53.497Z,7.07
2023-01-06T09:22:21.403Z,7.22
2023-01-06T09:24:49.202Z,6.80
2023-01-06T09:27:16.999Z,7.10
2023-01-06T09:29:44.818Z,8.68
2023-01-06T09:32:12.980Z,8.45
2023-01-06T09:34:40.816Z,11.02
2023-01-06T09:37:08.820Z,9.00
2023-01-06T09:39:39.599Z,16.17
2023-01-06T09:42:55.667Z,10.73
2023-01-06T09:45:53.842Z,6.47
2023-01-06T09:48:28.241Z,8.85
2023-01-06T09:51:01.974Z,8.82
2023-01-06T09:53:32.421Z,6.35
2023-01-06T09:56:04.249Z,6.72
2023-01-06T09:58:38.428Z,7.80
2023-01-06T10:01:13.557Z,8.02
2023-01-06T10:03:41.957Z,6.85
2023-01-06T10:06:31.230Z,11.05
2023-01-06T10:09:18.420Z,8.38
2023-01-06T10:11:58.448Z,8.73
2023-01-06T10:14:52.167Z,7.22
2023-01-06T10:17:52.190Z,9.20
2023-01-06T10:20:50.535Z,10.25
2023-01-06T10:23:33.590Z,7.75
2023-01-06T10:26:13.990Z,11.40
2023-01-06T10:28:45.061Z,26.83
2023-01-06T10:31:16.980Z,36.08
2023-01-06T10:33:51.723Z,42.03
2023-01-06T10:36:29.284Z,90.25
2023-01-06T10:38:58.504Z,23.23
2023-01-06T10:42:17.487Z,13.73
2023-01-06T10:44:45.307Z,9.80
2023-01-06T10:47:23.265Z,10.05
2023-01-06T10:49:51.107Z,14.68
2023-01-06T10:52:21.490Z,11.38
2023-01-06T10:54:54.590Z,15.70
2023-01-06T10:57:27.236Z,10.55
2023-01-06T11:00:24.500Z,23.08
2023-01-06T11:03:31.424Z,11.25
2023-01-06T11:06:28.295Z,11.18
2023-01-06T11:08:56.302Z,8.43
2023-01-06T11:11:29.224Z,8.50
2023-01-06T11:14:06.016Z,10.95
2023-01-06T11:16:37.175Z,9.63
2023-01-06T11:19:07.813Z,10.07
2023-01-06T11:21:44.639Z,10.60
2023-01-06T11:24:24.886Z,8.93
2023-01-06T11:27:15.958Z,7.15
2023-01-06T11:29:43.847Z,7.78
2023-01-06T11:32:28.144Z,7.78
2023-01-06T11:34:58.956Z,8.07
2023-01-06T11:37:43.560Z,5.15
2023-01-06T11:40:34.056Z,6.22
2023-01-06T11:43:10.440Z,17.48
2023-01-06T11:45:44.499Z,8.90
2023-01-06T11:48:27.597Z,11.57
2023-01-06T11:50:58.409Z,12.95
2023-01-06T11:53:27.535Z,11.38
2023-01-06T11:55:59.500Z,11.23
2023-01-06T11:58:33.421Z,11.80
2023-01-06T12:01:12.413Z,11.23
2023-01-06T12:03:46.471Z,9.10
2023-01-06T12:06:14.816Z,9.10
2023-01-06T12:08:51.699Z,10.32
2023-01-06T12:11:44.666Z,11.20
2023-01-06T12:14:28.498Z,11.35
2023-01-06T12:17:22.362Z,10.23
2023-01-06T12:20:08.286Z,10.55
2023-01-06T12:22:47.314Z,8.02
2023-01-06T12:25:42.576Z,7.22
2023-01-06T12:28:15.313Z,6.40
2023-01-06T12:30:51.337Z,7.75
2023-01-06T12:33:47.419Z,8.13
2023-01-06T12:36:18.937Z,7.18
2023-01-06T12:38:58.227Z,10.38
2023-01-06T12:41:41.117Z,17.30
2023-01-06T12:44:38.039Z,14.18
2023-01-06T12:47:23.962Z,16.88
2023-01-06T12:50:08.696Z,14.73
2023-01-06T12:52:47.267Z,12.45
2023-01-06T12:55:29.230Z,13.55
2023-01-06T12:58:05.756Z,11.30
2023-01-06T13:00:53.095Z,10.75
2023-01-06T13:03:20.898Z,10.43
2023-01-06T13:06:12.776Z,12.20
2023-01-06T13:08:46.740Z,12.55
2023-01-06T13:11:54.277Z,14.82
2023-01-06T13:14:27.448Z,26.88
2023-01-06T13:17:01.430Z,41.33
2023-01-06T13:19:35.571Z,39.72
2023-01-06T13:22:09.138Z,40.88
2023-01-06T13:25:03.853Z,36.38
2023-01-06T13:27:50.096Z,27.70
2023-01-06T13:30:59.467Z,21.13
2023-01-06T13:33:46.038Z,16.67
2023-01-06T13:36:44.512Z,12.98
2023-01-06T13:39:27.602Z,13.30
2023-01-06T13:41:57.678Z,11.52
2023-01-06T13:44:29.995Z,12.15
2023-01-06T13:47:05.907Z,10.63
2023-01-06T13:49:34.928Z,8.18
2023-01-06T13:52:07.785Z,9.95
2023-01-06T13:54:42.475Z,11.52
2023-01-06T13:57:22.403Z,10.77
2023-01-06T13:59:54.200Z,9.27
2023-01-06T14:02:34.456Z,9.60
2023-01-06T14:05:04.095Z,9.38
2023-01-06T14:07:37.359Z,10.18
2023-01-06T14:10:25.205Z,10.80
2023-01-06T14:12:54.006Z,9.10
2023-01-06T14:15:29.233Z,9.68
2023-01-06T14:17:58.023Z,10.40
2023-01-06T14:20:33.860Z,8.82
2023-01-06T14:23:09.089Z,8.88
2023-01-06T14:25:41.338Z,8.98
2023-01-06T14:28:24.952Z,8.82
2023-01-06T14:31:27.682Z,6.30
2023-01-06T14:33:59.735Z,7.88
2023-01-06T14:36:32.300Z,7.55
2023-01-06T14:39:04.716Z,10.50
2023-01-06T14:41:39.338Z,8.75
2023-01-06T14:44:14.244Z,11.43
2023-01-06T14:47:00.155Z,9.52
2023-01-06T14:49:36.538Z,8.48
2023-01-06T14:52:15.538Z,10.80
2023-01-06T14:54:47.219Z,10.15
2023-01-06T14:57:28.210Z,12.10
2023-01-06T15:00:18.835Z,12.82
2023-01-06T15:02:51.763Z,11.48
2023-01-06T15:05:38.361Z,9.32
2023-01-06T15:08:26.562Z,10.93
2023-01-06T15:10:55.683Z,9.25
2023-01-06T15:13:31.703Z,8.38
2023-01-06T15:16:06.460Z,8.93
2023-01-06T15:18:36.301Z,7.85
2023-01-06T15:21:06.907Z,9.32
2023-01-06T15:23:34.925Z,14.15
2023-01-06T15:26:02.792Z,11.43
2023-01-06T15:28:35.132Z,14.93
2023-01-06T15:31:03.455Z,16.92
2023-01-06T15:33:38.904Z,17.38
2023-01-06T15:36:08.741Z,20.88
2023-01-06T15:38:40.903Z,19.98
2023-01-06T15:41:32.340Z,23.00
2023-01-06T15:44:02.260Z,18.13
2023-01-06T15:46:41.478Z,15.93
2023-01-06T15:49:23.334Z,12.32
2023-01-06T15:52:06.894Z,16.83
2023-01-06T15:54:38.470Z,11.18
2023-01-06T15:57:16.688Z,12.77
2023-01-06T16:00:06.060Z,11.30
2023-01-06T16:02:34.260Z,13.57
2023-01-06T16:05:03.862Z,16.23
2023-01-06T16:07:43.794Z,17.27
2023-01-06T16:10:32.112Z,17.65
2023-01-06T16:13:22.912Z,15.25
2023-01-06T16:16:00.072Z,15.13
2023-01-06T16:20:58.167Z,12.65
2023-01-06T16:23:37.080Z,11.80
2023-01-06T16:26:08.158Z,10.73
2023-01-06T16:28:41.307Z,8.55
2023-01-06T16:31:13.243Z,11.18
2023-01-06T16:33:46.030Z,10.88
2023-01-06T16:36:16.334Z,8.68
2023-01-06T16:38:44.663Z,7.53
2023-01-06T16:41:19.714Z,7.78
2023-01-06T16:43:47.504Z,9.68
2023-01-06T16:46:22.478Z,6.75
2023-01-06T16:48:52.606Z,6.43
2023-01-06T16:51:21.548Z,9.30
2023-01-06T16:53:53.503Z,7.55
2023-01-06T16:56:23.267Z,9.48
2023-01-06T16:58:53.746Z,8.25
2023-01-06T17:01:23.663Z,11.10
2023-01-06T17:03:57.265Z,9.35
2023-01-06T17:06:28.496Z,7.68
2023-01-06T17:09:01.188Z,7.82
2023-01-06T17:11:35.777Z,11.20
2023-01-06T17:14:13.689Z,9.20
2023-01-06T17:16:42.978Z,11.43
2023-01-06T17:19:28.750Z,9.23
2023-01-06T17:22:16.118Z,8.27
2023-01-06T17:24:44.034Z,11.43
2023-01-06T17:27:30.903Z,11.10
2023-01-06T17:30:01.886Z,10.77
2023-01-06T17:32:40.594Z,8.02
2023-01-06T17:35:30.291Z,9.10
2023-01-06T17:38:07.823Z,9.63
2023-01-06T17:40:38.754Z,8.95
2023-01-06T17:43:25.023Z,8.98
2023-01-06T17:45:53.135Z,8.32
2023-01-06T17:48:21.729Z,9.05
2023-01-06T17:50:52.971Z,8.73
2023-01-06T17:53:52.334Z,9.27
2023-01-06T17:56:23.227Z,8.90
2023-01-06T17:58:53.142Z,7.03
2023-01-06T18:01:30.152Z,9.10
2023-01-06T18:04:00.418Z,9.50
2023-01-06T18:06:39.249Z,8.18
2023-01-06T18:09:11.707Z,7.78
2023-01-06T18:11:49.902Z,8.02
2023-01-06T18:14:19.646Z,7.18
2023-01-06T18:16:52.178Z,12.05
2023-01-06T18:19:30.971Z,14.55
2023-01-06T18:22:00.274Z,11.63
2023-01-06T18:24:40.872Z,14.00
2023-01-06T18:27:22.653Z,10.93
2023-01-06T18:29:51.573Z,11.70
2023-01-06T18:32:20.157Z,11.90
2023-01-06T18:34:53.572Z,10.25
2023-01-06T18:37:33.449Z,11.32
2023-01-06T18:40:08.087Z,8.77
2023-01-06T18:42:49.088Z,9.32
2023-01-06T18:45:27.805Z,12.48
2023-01-06T18:47:59.757Z,13.32
2023-01-06T18:50:44.396Z,10.23
2023-01-06T18:53:24.758Z,10.38
2023-01-06T18:56:04.866Z,8.52
2023-01-06T18:58:47.628Z,9.45
2023-01-06T19:01:23.382Z,8.95
2023-01-06T19:04:18.960Z,8.30
2023-01-06T19:06:56.745Z,9.25
2023-01-06T19:09:39.867Z,9.20
2023-01-06T19:12:30.484Z,10.27
2023-01-06T19:15:15.905Z,9.90
2023-01-06T19:17:46.460Z,10.30
2023-01-06T19:20:18.653Z,9.25
2023-01-06T19:22:46.617Z,9.95
2023-01-06T19:25:39.827Z,9.13
2023-01-06T19:28:24.480Z,8.82
2023-01-06T19:30:52.400Z,8.60
2023-01-06T19:33:26.452Z,9.90
2023-01-06T19:36:06.839Z,9.70
2023-01-06T19:38:43.666Z,10.10
2023-01-06T19:41:28.671Z,8.73
2023-01-06T19:44:16.885Z,9.70
2023-01-06T19:46:48.323Z,10.15
2023-01-06T19:49:21.848Z,12.27
2023-01-06T19:51:52.266Z,11.23
2023-01-06T19:54:26.010Z,10.30
2023-01-06T19:56:55.992Z,10.10
2023-01-06T19:59:32.399Z,11.20
2023-01-06T20:02:09.649Z,8.55
2023-01-06T20:04:37.647Z,10.75
2023-01-06T20:07:05.508Z,11.82
2023-01-06T20:09:33.960Z,11.60
2023-01-06T20:12:01.891Z,10.45
2023-01-06T20:14:30.905Z,13.15
2023-01-06T20:16:59.627Z,16.17
2023-01-06T20:19:27.566Z,12.18
2023-01-06T20:21:56.334Z,16.42
2023-01-06T20:24:24.089Z,13.57
2023-01-06T20:26:51.886Z,13.02
2023-01-06T20:29:19.748Z,12.90
2023-01-06T20:31:48.354Z,11.32
2023-01-06T20:34:16.296Z,12.77
2023-01-06T20:36:44.199Z,10.82
2023-01-06T20:39:15.350Z,10.07
2023-01-06T20:41:43.475Z,12.13
2023-01-06T20:44:13.248Z,14.52
2023-01-06T20:46:41.621Z,11.85
2023-01-06T20:49:09.485Z,12.85
2023-01-06T20:51:37.337Z,12.98
2023-01-06T20:54:07.565Z,11.43
2023-01-06T20:56:35.396Z,11.07
2023-01-06T20:59:03.581Z,10.70
2023-01-06T21:01:31.799Z,12.57
2023-01-06T21:04:01.785Z,20.27
2023-01-06T21:06:29.979Z,17.75
2023-01-06T21:08:57.972Z,14.00
2023-01-06T21:11:25.903Z,12.55
2023-01-06T21:13:53.745Z,13.15
2023-01-06T21:16:22.933Z,13.75
2023-01-06T21:18:51.940Z,12.45
2023-01-06T21:21:20.004Z,14.27
2023-01-06T21:23:50.209Z,11.70
2023-01-06T21:26:17.958Z,11.68
2023-01-06T21:28:46.064Z,11.32
2023-01-06T21:31:14.155Z,11.05
2023-01-06T21:33:42.014Z,9.93
2023-01-06T21:36:10.040Z,10.93
2023-01-06T21:38:38.154Z,8.80
2023-01-06T21:41:26.383Z,7.40
2023-01-06T21:43:54.152Z,7.00
2023-01-06T21:46:22.080Z,10.25
2023-01-06T21:48:51.176Z,9.25
2023-01-06T21:51:19.515Z,8.75
2023-01-06T21:53:47.544Z,9.98
2023-01-06T21:56:15.875Z,10.32
2023-01-06T21:58:43.934Z,9.80
2023-01-06T22:01:12.234Z,8.65
2023-01-06T22:03:40.380Z,9.80
2023-01-06T22:06:09.664Z,11.02
2023-01-06T22:08:38.567Z,8.23
2023-01-06T22:11:07.471Z,8.38
2023-01-06T22:13:35.426Z,9.73
2023-01-06T22:16:03.369Z,8.55
2023-01-06T22:18:34.365Z,10.43
2023-01-06T22:21:02.908Z,10.48
2023-01-06T22:23:33.250Z,9.85
2023-01-06T22:26:01.061Z,10.07
2023-01-06T22:28:28.819Z,11.20
2023-01-06T22:30:56.670Z,10.68
2023-01-06T22:33:24.743Z,8.90
2023-01-06T22:35:57.015Z,10.75
2023-01-06T22:38:25.273Z,11.70
2023-01-06T22:40:53.159Z,10.23
2023-01-06T22:43:22.551Z,9.20
2023-01-06T22:45:54.844Z,9.48
2023-01-06T22:48:23.361Z,9.25
2023-01-06T22:50:58.862Z,10.10
2023-01-06T22:53:28.562Z,8.75
2023-01-06T22:56:05.556Z,9.82
2023-01-06T22:58:34.947Z,10.60
2023-01-06T23:01:04.912Z,12.00
2023-01-06T23:03:33.687Z,10.95
2023-01-06T23:06:10.320Z,10.38
2023-01-06T23:08:48.052Z,9.50
2023-01-06T23:11:22.873Z,10.20
2023-01-06T23:13:55.674Z,10.60
2023-01-06T23:16:25.684Z,8.32
2023-01-06T23:18:53.518Z,7.82
2023-01-06T23:21:26.844Z,11.23
2023-01-06T23:23:54.902Z,11.52
2023-01-06T23:26:30.580Z,12.10
2023-01-06T23:28:58.563Z,13.07
2023-01-06T23:31:29.213Z,13.27
2023-01-06T23:34:02.422Z,15.18
2023-01-06T23:36:30.999Z,18.35
2023-01-06T23:39:00.543Z,15.45
2023-01-06T23:41:32.126Z,13.85
2023-01-06T23:44:01.082Z,13.25
2023-01-06T23:46:31.819Z,15.60
2023-01-06T23:48:59.639Z,15.63
2023-01-06T23:51:30.826Z,14.35
2023-01-06T23:54:00.236Z,15.77
2023-01-06T23:56:30.357Z,15.93
2023-01-06T23:59:01.630Z,15.30
